createdAt,value
2017-04-19T00:00:13.246Z,4.65
2017-04-19T00:01:14.987Z,4.32
2017-04-19T00:02:16.048Z,3.78
2017-04-19T00:03:17.086Z,4.47
2017-04-19T00:04:18.121Z,4.20
2017-04-19T00:05:19.709Z,4.15
2017-04-19T00:06:20.914Z,4.03
2017-04-19T00:07:22.635Z,3.83
2017-04-19T00:08:23.797Z,4.27
2017-04-19T00:09:24.797Z,4.72
2017-04-19T00:10:26.897Z,4.15
2017-04-19T00:11:27.950Z,4.43
2017-04-19T00:12:29.206Z,4.45
2017-04-19T00:13:30.435Z,10.28
2017-04-19T00:14:31.648Z,4.70
2017-04-19T00:15:32.893Z,4.75
2017-04-19T00:16:34.168Z,4.40
2017-04-19T00:17:35.428Z,4.08
2017-04-19T00:18:37.002Z,4.77
2017-04-19T00:19:38.095Z,4.88
2017-04-19T00:20:39.234Z,4.78
2017-04-19T00:21:40.575Z,4.68
2017-04-19T00:22:41.673Z,4.28
2017-04-19T00:23:42.738Z,3.83
2017-04-19T00:24:43.880Z,4.05
2017-04-19T00:25:45.113Z,4.70
2017-04-19T00:26:46.407Z,4.15
2017-04-19T00:27:48.036Z,3.17
2017-04-19T00:28:49.318Z,3.82
2017-04-19T00:29:50.810Z,4.47
2017-04-19T00:30:52.402Z,4.68
2017-04-19T00:31:53.576Z,5.13
2017-04-19T00:32:54.705Z,3.87
2017-04-19T00:33:55.915Z,4.47
2017-04-19T00:34:57.343Z,3.95
2017-04-19T00:35:58.936Z,4.40
2017-04-19T00:37:00.000Z,5.35
2017-04-19T00:38:01.091Z,3.85
2017-04-19T00:39:02.320Z,4.67
2017-04-19T00:40:03.356Z,4.62
2017-04-19T00:41:04.425Z,3.28
2017-04-19T00:42:05.401Z,4.05
2017-04-19T00:43:06.370Z,5.28
2017-04-19T00:44:07.548Z,7.12
2017-04-19T00:45:08.590Z,5.70
2017-04-19T00:46:09.819Z,4.92
2017-04-19T00:47:10.827Z,4.07
2017-04-19T00:48:11.904Z,3.80
2017-04-19T00:49:13.215Z,3.55
2017-04-19T00:50:14.345Z,3.55
2017-04-19T00:51:15.581Z,5.90
2017-04-19T00:52:16.760Z,3.60
2017-04-19T00:53:17.820Z,4.82
2017-04-19T00:54:18.856Z,5.88
2017-04-19T00:55:19.812Z,7.48
2017-04-19T00:56:21.327Z,4.27
2017-04-19T00:57:22.493Z,6.02
2017-04-19T00:58:23.796Z,4.50
2017-04-19T00:59:25.036Z,3.97
2017-04-19T01:00:26.615Z,4.45
2017-04-19T01:01:28.164Z,4.10
2017-04-19T01:02:29.207Z,4.18
2017-04-19T01:03:30.323Z,5.20
2017-04-19T01:04:31.385Z,4.42
2017-04-19T01:05:32.424Z,4.25
2017-04-19T01:06:33.416Z,3.98
2017-04-19T01:07:34.912Z,4.72
2017-04-19T01:09:42.955Z,5.17
2017-04-19T01:10:44.820Z,4.77
2017-04-19T01:11:46.679Z,4.25
2017-04-19T01:12:47.844Z,6.33
2017-04-19T01:13:48.891Z,5.12
2017-04-19T01:14:50.141Z,4.33
2017-04-19T01:15:51.135Z,4.43
2017-04-19T01:16:52.294Z,4.95
2017-04-19T01:17:53.537Z,4.75
2017-04-19T01:18:54.856Z,5.35
2017-04-19T01:19:56.146Z,5.68
2017-04-19T01:20:57.144Z,4.70
2017-04-19T01:21:58.161Z,5.20
2017-04-19T01:22:59.230Z,5.08
2017-04-19T01:24:00.400Z,4.93
2017-04-19T01:25:01.712Z,5.02
2017-04-19T01:26:02.706Z,5.12
2017-04-19T01:27:03.717Z,5.08
2017-04-19T01:28:04.856Z,4.75
2017-04-19T01:29:05.895Z,4.53
2017-04-19T01:30:07.394Z,5.55
2017-04-19T01:31:09.599Z,4.70
2017-04-19T01:32:14.533Z,5.22
2017-04-19T01:33:15.808Z,5.22
2017-04-19T01:34:16.902Z,6.88
2017-04-19T01:35:18.020Z,4.78
2017-04-19T01:36:19.577Z,4.95
2017-04-19T01:37:20.570Z,5.25
2017-04-19T01:38:21.643Z,4.48
2017-04-19T01:39:22.838Z,4.48
2017-04-19T01:40:23.809Z,3.83
2017-04-19T01:41:24.931Z,5.00
2017-04-19T01:42:26.028Z,5.05
2017-04-19T01:43:27.183Z,5.97
2017-04-19T01:44:28.419Z,5.50
2017-04-19T01:45:31.481Z,4.52
2017-04-19T01:46:33.076Z,4.62
2017-04-19T01:47:34.261Z,5.85
2017-04-19T01:48:35.508Z,5.53
2017-04-19T01:49:36.628Z,5.72
2017-04-19T01:50:38.012Z,5.53
2017-04-19T01:51:39.361Z,4.47
2017-04-19T01:52:40.587Z,6.77
2017-04-19T01:53:41.785Z,5.68
2017-04-19T01:54:42.940Z,4.43
2017-04-19T01:55:44.392Z,4.25
2017-04-19T01:56:45.618Z,5.82
2017-04-19T01:57:46.914Z,6.25
2017-04-19T01:58:48.144Z,5.03
2017-04-19T01:59:49.440Z,5.05
2017-04-19T02:00:50.538Z,6.48
2017-04-19T02:01:51.632Z,5.35
2017-04-19T02:02:52.962Z,5.40
2017-04-19T02:03:54.727Z,5.25
2017-04-19T02:04:55.766Z,5.25
2017-04-19T02:06:02.199Z,4.83
2017-04-19T02:07:07.476Z,4.73
2017-04-19T02:08:09.822Z,5.12
2017-04-19T02:09:11.523Z,4.90
2017-04-19T02:10:12.825Z,5.37
2017-04-19T02:11:13.859Z,5.47
2017-04-19T02:12:14.819Z,4.60
2017-04-19T02:13:15.999Z,5.85
2017-04-19T02:14:17.017Z,5.55
2017-04-19T02:15:18.266Z,5.45
2017-04-19T02:16:19.319Z,5.22
2017-04-19T02:17:20.458Z,6.27
2017-04-19T02:18:21.959Z,4.93
2017-04-19T02:19:23.028Z,6.30
2017-04-19T02:20:23.953Z,4.90
2017-04-19T02:21:24.880Z,7.67
2017-04-19T02:22:26.003Z,6.62
2017-04-19T02:23:26.955Z,4.73
2017-04-19T02:24:27.950Z,6.13
2017-04-19T02:25:29.266Z,5.05
2017-04-19T02:26:30.235Z,5.28
2017-04-19T02:27:31.663Z,6.92
2017-04-19T02:28:32.603Z,6.20
2017-04-19T02:29:33.552Z,4.77
2017-04-19T02:30:34.740Z,5.98
2017-04-19T02:31:35.683Z,5.40
2017-04-19T02:32:36.915Z,6.55
2017-04-19T02:33:38.107Z,4.57
2017-04-19T02:34:39.325Z,6.70
2017-04-19T02:35:40.414Z,4.70
2017-04-19T02:36:41.567Z,7.77
2017-04-19T02:37:42.877Z,6.62
2017-04-19T02:38:43.980Z,4.37
2017-04-19T02:39:45.242Z,5.48
2017-04-19T02:40:46.439Z,6.73
2017-04-19T02:41:47.636Z,6.03
2017-04-19T02:42:48.838Z,6.25
2017-04-19T02:43:49.998Z,7.17
2017-04-19T02:44:51.288Z,5.25
2017-04-19T02:45:52.751Z,5.60
2017-04-19T02:46:54.037Z,5.50
2017-04-19T02:47:55.215Z,5.22
2017-04-19T02:48:56.229Z,6.50
2017-04-19T02:49:57.242Z,6.15
2017-04-19T02:50:58.504Z,6.08
2017-04-19T02:51:59.811Z,5.93
2017-04-19T02:53:01.015Z,5.67
2017-04-19T02:54:02.141Z,6.92
2017-04-19T02:55:03.266Z,4.63
2017-04-19T02:56:04.656Z,5.03
2017-04-19T02:57:05.554Z,5.50
2017-04-19T02:58:06.865Z,4.98
2017-04-19T02:59:08.000Z,5.65
2017-04-19T03:00:09.009Z,6.38
2017-04-19T03:01:10.180Z,6.15
2017-04-19T03:02:11.311Z,7.52
2017-04-19T03:03:12.317Z,6.53
2017-04-19T03:04:13.484Z,5.92
2017-04-19T03:05:14.714Z,5.45
2017-04-19T03:06:15.854Z,5.87
2017-04-19T03:07:17.028Z,5.27
2017-04-19T03:08:18.095Z,5.83
2017-04-19T03:09:19.454Z,5.57
2017-04-19T03:10:20.612Z,6.82
2017-04-19T03:11:21.816Z,5.45
2017-04-19T03:12:23.331Z,6.60
2017-04-19T03:13:24.527Z,9.20
2017-04-19T03:14:25.784Z,5.93
2017-04-19T03:15:27.024Z,6.07
2017-04-19T03:16:28.003Z,5.53
2017-04-19T03:17:29.137Z,6.75
2017-04-19T03:18:30.122Z,6.63
2017-04-19T03:19:31.160Z,5.83
2017-04-19T03:20:32.229Z,6.02
2017-04-19T03:21:33.483Z,6.67
2017-04-19T03:22:34.618Z,5.65
2017-04-19T03:23:35.899Z,6.05
2017-04-19T03:24:37.095Z,7.07
2017-04-19T03:25:38.296Z,6.73
2017-04-19T03:26:39.434Z,6.65
2017-04-19T03:27:40.668Z,6.38
2017-04-19T03:28:41.905Z,6.75
2017-04-19T03:29:43.107Z,7.58
2017-04-19T03:30:44.337Z,6.35
2017-04-19T03:31:45.556Z,5.78
2017-04-19T03:32:46.947Z,6.70
2017-04-19T03:33:48.443Z,6.52
2017-04-19T03:34:49.512Z,6.50
2017-04-19T03:35:50.797Z,5.88
2017-04-19T03:36:51.911Z,6.67
2017-04-19T03:37:53.175Z,7.25
2017-04-19T03:38:54.478Z,6.23
2017-04-19T03:39:55.598Z,6.78
2017-04-19T03:40:56.775Z,7.08
2017-04-19T03:41:57.970Z,6.22
2017-04-19T03:42:59.152Z,6.28
2017-04-19T03:44:00.376Z,6.83
2017-04-19T03:45:01.493Z,7.28
2017-04-19T03:46:02.624Z,6.23
2017-04-19T03:47:03.908Z,7.08
2017-04-19T03:48:05.063Z,6.97
2017-04-19T03:49:06.271Z,8.52
2017-04-19T03:50:07.428Z,7.45
2017-04-19T03:51:08.681Z,7.47
2017-04-19T03:52:10.355Z,7.62
2017-04-19T03:53:11.540Z,6.67
2017-04-19T03:54:12.764Z,6.70
2017-04-19T03:55:13.918Z,6.12
2017-04-19T03:56:15.065Z,6.92
2017-04-19T03:57:16.305Z,5.93
2017-04-19T03:58:17.479Z,6.12
2017-04-19T03:59:18.662Z,6.98
2017-04-19T04:00:19.879Z,6.78
2017-04-19T04:01:21.211Z,6.83
2017-04-19T04:02:22.581Z,7.70
2017-04-19T04:03:24.285Z,7.13
2017-04-19T04:04:25.435Z,7.07
2017-04-19T04:05:26.595Z,6.90
2017-04-19T04:06:27.700Z,11.57
2017-04-19T04:07:28.704Z,6.35
2017-04-19T04:08:30.804Z,8.13
2017-04-19T04:09:35.395Z,9.03
2017-04-19T04:10:37.698Z,8.12
2017-04-19T04:11:43.463Z,7.20
2017-04-19T04:12:45.389Z,7.90
2017-04-19T04:13:46.835Z,7.90
2017-04-19T04:14:48.119Z,10.38
2017-04-19T04:15:49.517Z,9.80
2017-04-19T04:16:52.895Z,8.02
2017-04-19T04:18:01.351Z,7.97
2017-04-19T04:19:03.667Z,7.55
2017-04-19T04:20:05.240Z,7.48
2017-04-19T04:21:06.589Z,7.38
2017-04-19T04:22:07.767Z,7.47
2017-04-19T04:23:08.908Z,7.67
2017-04-19T04:24:10.098Z,9.18
2017-04-19T04:25:11.184Z,8.12
2017-04-19T04:26:12.373Z,7.10
2017-04-19T04:27:13.552Z,7.82
2017-04-19T04:28:14.788Z,7.72
2017-04-19T04:29:16.139Z,9.90
2017-04-19T04:30:17.332Z,7.27
2017-04-19T04:31:18.503Z,8.08
2017-04-19T04:32:19.715Z,7.50
2017-04-19T04:33:20.882Z,8.13
2017-04-19T04:34:22.507Z,8.28
2017-04-19T04:35:23.696Z,9.02
2017-04-19T04:36:24.828Z,7.82
2017-04-19T04:37:25.988Z,9.20
2017-04-19T04:38:27.336Z,8.97
2017-04-19T04:39:28.513Z,10.72
2017-04-19T04:40:29.747Z,9.73
2017-04-19T04:41:30.924Z,7.82
2017-04-19T04:42:32.221Z,10.42
2017-04-19T04:43:33.423Z,13.68
2017-04-19T04:44:34.689Z,10.25
2017-04-19T04:45:35.921Z,12.35
2017-04-19T04:46:37.070Z,9.20
2017-04-19T04:47:38.392Z,8.05
2017-04-19T04:48:39.496Z,11.83
2017-04-19T04:49:40.705Z,9.97
2017-04-19T04:50:42.020Z,12.62
2017-04-19T04:51:43.169Z,9.13
2017-04-19T04:52:44.321Z,11.02
2017-04-19T04:53:45.625Z,9.80
2017-04-19T04:54:46.820Z,9.92
2017-04-19T04:55:48.079Z,11.43
2017-04-19T04:56:49.265Z,11.80
2017-04-19T04:57:50.356Z,9.40
2017-04-19T04:58:51.355Z,11.45
2017-04-19T04:59:52.609Z,9.58
2017-04-19T05:00:54.138Z,12.77
2017-04-19T05:01:55.336Z,10.22
2017-04-19T05:02:56.540Z,10.22
2017-04-19T05:03:57.779Z,11.88
2017-04-19T05:04:58.908Z,8.35
2017-04-19T05:05:59.933Z,8.00
2017-04-19T05:07:01.089Z,8.67
2017-04-19T05:08:02.213Z,8.97
2017-04-19T05:09:03.850Z,9.58
2017-04-19T05:10:04.994Z,8.12
2017-04-19T05:11:06.380Z,8.03
2017-04-19T05:12:07.539Z,10.08
2017-04-19T05:13:08.684Z,8.92
2017-04-19T05:14:09.920Z,9.20
2017-04-19T05:15:11.075Z,9.20
2017-04-19T05:16:12.276Z,9.05
2017-04-19T05:17:13.431Z,8.35
2017-04-19T05:18:14.987Z,8.15
2017-04-19T05:19:16.094Z,7.25
2017-04-19T05:20:17.271Z,8.02
2017-04-19T05:21:18.539Z,9.40
2017-04-19T05:22:20.005Z,7.15
2017-04-19T05:23:21.157Z,7.95
2017-04-19T05:24:22.283Z,8.40
2017-04-19T05:25:23.226Z,8.13
2017-04-19T05:26:24.367Z,7.52
2017-04-19T05:27:25.537Z,7.75
2017-04-19T05:28:26.805Z,9.28
2017-04-19T05:29:27.893Z,8.57
2017-04-19T05:30:29.062Z,7.83
2017-04-19T05:31:30.391Z,7.85
2017-04-19T05:32:31.627Z,9.45
2017-04-19T05:33:32.827Z,8.45
2017-04-19T05:34:34.814Z,7.75
2017-04-19T05:35:35.903Z,9.58
2017-04-19T05:36:37.111Z,9.35
2017-04-19T05:37:38.347Z,11.30
2017-04-19T05:38:39.582Z,8.77
2017-04-19T05:39:40.839Z,7.28
2017-04-19T05:40:41.978Z,7.32
2017-04-19T05:41:43.181Z,7.67
2017-04-19T05:42:44.652Z,6.25
2017-04-19T05:43:45.988Z,6.72
2017-04-19T05:44:47.366Z,5.90
2017-04-19T05:45:48.502Z,8.50
2017-04-19T05:46:49.765Z,8.65
2017-04-19T05:47:50.893Z,7.25
2017-04-19T05:48:52.211Z,7.28
2017-04-19T05:49:53.387Z,8.20
2017-04-19T05:50:54.643Z,6.87
2017-04-19T05:51:55.914Z,8.58
2017-04-19T05:52:57.094Z,9.57
2017-04-19T05:53:58.516Z,7.18
2017-04-19T05:54:59.682Z,12.38
2017-04-19T05:56:00.879Z,7.53
2017-04-19T05:57:02.046Z,8.27
2017-04-19T05:58:03.279Z,7.33
2017-04-19T05:59:04.494Z,8.12
2017-04-19T06:00:05.649Z,7.95
2017-04-19T06:01:06.571Z,7.57
2017-04-19T06:02:07.980Z,7.30
2017-04-19T06:03:09.202Z,6.62
2017-04-19T06:04:12.767Z,6.20
2017-04-19T06:05:14.535Z,8.08
2017-04-19T06:06:15.695Z,6.95
2017-04-19T06:07:16.827Z,7.43
2017-04-19T06:08:17.947Z,7.57
2017-04-19T06:09:19.264Z,11.10
2017-04-19T06:10:24.437Z,9.58
2017-04-19T06:11:27.639Z,7.65
2017-04-19T06:12:29.765Z,8.57
2017-04-19T06:13:33.430Z,7.48
2017-04-19T06:14:38.495Z,8.70
2017-04-19T06:15:41.740Z,8.60
2017-04-19T06:16:43.844Z,7.70
2017-04-19T06:17:47.103Z,7.90
2017-04-19T06:18:49.961Z,6.20
2017-04-19T06:19:51.885Z,8.07
2017-04-19T06:20:54.852Z,7.77
2017-04-19T06:21:58.220Z,8.28
2017-04-19T06:23:01.977Z,7.13
2017-04-19T06:24:05.808Z,6.67
2017-04-19T06:25:08.354Z,6.53
2017-04-19T06:26:10.840Z,7.78
2017-04-19T06:27:16.963Z,7.00
2017-04-19T06:28:19.920Z,8.62
2017-04-19T06:29:22.004Z,7.43
2017-04-19T06:30:24.742Z,7.78
2017-04-19T06:31:27.080Z,7.72
2017-04-19T06:32:30.194Z,6.98
2017-04-19T06:33:32.809Z,9.20
2017-04-19T06:34:35.927Z,7.95
2017-04-19T06:35:41.578Z,7.87
2017-04-19T06:36:45.751Z,8.60
2017-04-19T06:37:48.334Z,6.63
2017-04-19T06:38:51.044Z,6.53
2017-04-19T06:39:55.265Z,6.28
2017-04-19T06:40:59.620Z,6.12
2017-04-19T06:42:04.703Z,6.78
2017-04-19T06:43:09.211Z,7.92
2017-04-19T06:44:12.211Z,5.95
2017-04-19T06:45:16.558Z,7.47
2017-04-19T06:46:18.318Z,6.17
2017-04-19T06:47:21.629Z,7.38
2017-04-19T06:48:22.980Z,5.45
2017-04-19T06:49:24.216Z,5.30
2017-04-19T06:50:29.529Z,7.98
2017-04-19T06:51:32.215Z,5.82
2017-04-19T06:52:36.002Z,5.70
2017-04-19T06:53:37.712Z,6.43
2017-04-19T06:54:42.822Z,5.37
2017-04-19T06:55:47.341Z,6.92
2017-04-19T06:56:49.686Z,8.43
2017-04-19T06:57:54.142Z,6.40
2017-04-19T06:58:56.552Z,5.85
2017-04-19T06:59:59.885Z,5.40
2017-04-19T07:01:03.403Z,6.12
2017-04-19T07:02:06.055Z,7.48
2017-04-19T07:03:10.335Z,5.65
2017-04-19T07:04:14.898Z,5.02
2017-04-19T07:05:17.459Z,5.82
2017-04-19T07:06:20.664Z,7.93
2017-04-19T07:07:24.856Z,7.13
2017-04-19T07:08:28.118Z,7.37
2017-04-19T07:09:30.352Z,5.72
2017-04-19T07:10:33.917Z,6.30
2017-04-19T07:11:37.453Z,5.30
2017-04-19T07:12:40.737Z,5.70
2017-04-19T07:13:43.899Z,6.25
2017-04-19T07:14:46.979Z,5.43
2017-04-19T07:15:50.752Z,5.42
2017-04-19T07:16:54.327Z,4.72
2017-04-19T07:17:57.755Z,5.40
2017-04-19T07:19:00.065Z,7.75
2017-04-19T07:20:04.043Z,5.80
2017-04-19T07:21:08.334Z,5.42
2017-04-19T07:22:12.590Z,5.73
2017-04-19T07:23:14.946Z,6.58
2017-04-19T07:24:18.830Z,6.53
2017-04-19T07:25:22.573Z,5.82
2017-04-19T07:26:24.433Z,4.53
2017-04-19T07:27:27.673Z,6.33
2017-04-19T07:28:28.657Z,5.45
2017-04-19T07:29:29.881Z,4.60
2017-04-19T07:30:32.135Z,4.30
2017-04-19T07:31:33.322Z,3.58
2017-04-19T07:32:34.487Z,4.32
2017-04-19T07:33:35.703Z,3.82
2017-04-19T07:34:37.071Z,4.63
2017-04-19T07:35:38.150Z,5.70
2017-04-19T07:36:39.460Z,4.22
2017-04-19T07:37:40.713Z,3.72
2017-04-19T07:38:42.069Z,3.52
2017-04-19T07:39:43.314Z,4.42
2017-04-19T07:40:44.552Z,4.10
2017-04-19T07:41:46.490Z,4.03
2017-04-19T07:42:47.760Z,4.50
2017-04-19T07:43:48.984Z,3.33
2017-04-19T07:44:50.212Z,4.03
2017-04-19T07:45:51.363Z,5.38
2017-04-19T07:46:52.642Z,3.83
2017-04-19T07:47:54.017Z,5.97
2017-04-19T07:48:55.303Z,4.68
2017-04-19T07:49:56.523Z,6.15
2017-04-19T07:50:58.081Z,4.17
2017-04-19T07:51:59.400Z,3.75
2017-04-19T07:53:00.567Z,4.32
2017-04-19T07:54:01.679Z,3.82
2017-04-19T07:55:02.740Z,4.25
2017-04-19T07:56:03.974Z,4.55
2017-04-19T07:57:05.585Z,3.67
2017-04-19T07:58:06.715Z,3.33
2017-04-19T07:59:07.833Z,4.08
2017-04-19T08:00:09.053Z,4.23
2017-04-19T08:01:10.307Z,3.10
2017-04-19T08:02:11.296Z,5.53
2017-04-19T08:03:12.459Z,5.15
2017-04-19T08:04:13.807Z,3.67
2017-04-19T08:05:15.019Z,4.70
2017-04-19T08:06:16.188Z,3.27
2017-04-19T08:07:17.176Z,7.33
2017-04-19T08:08:18.410Z,3.80
2017-04-19T08:09:19.612Z,4.40
2017-04-19T08:10:20.746Z,2.80
2017-04-19T08:11:21.877Z,4.28
2017-04-19T08:12:23.089Z,2.40
2017-04-19T08:13:24.084Z,2.52
2017-04-19T08:14:25.318Z,2.33
2017-04-19T08:15:26.470Z,3.02
2017-04-19T08:16:27.611Z,2.22
2017-04-19T08:17:29.048Z,2.68
2017-04-19T08:18:30.160Z,2.28
2017-04-19T08:19:31.568Z,3.50
2017-04-19T08:20:32.760Z,2.65
2017-04-19T08:21:33.731Z,6.07
2017-04-19T08:22:35.311Z,2.60
2017-04-19T08:23:36.459Z,2.80
2017-04-19T08:24:37.660Z,3.07
2017-04-19T08:25:39.074Z,2.18
2017-04-19T08:26:40.299Z,2.93
2017-04-19T08:27:41.536Z,2.50
2017-04-19T08:28:42.751Z,4.63
2017-04-19T08:29:43.951Z,4.37
2017-04-19T08:30:45.462Z,2.12
2017-04-19T08:31:46.884Z,2.65
2017-04-19T08:32:48.076Z,2.78
2017-04-19T08:33:49.227Z,6.02
2017-04-19T08:34:50.418Z,2.63
2017-04-19T08:35:51.597Z,2.15
2017-04-19T08:36:52.719Z,3.45
2017-04-19T08:37:54.095Z,3.58
2017-04-19T08:38:55.079Z,4.07
2017-04-19T08:39:56.338Z,2.65
2017-04-19T08:40:57.549Z,2.28
2017-04-19T08:41:59.156Z,2.87
2017-04-19T08:43:00.164Z,2.92
2017-04-19T08:44:01.132Z,3.23
2017-04-19T08:45:02.871Z,2.80
2017-04-19T08:46:03.959Z,2.53
2017-04-19T08:47:04.883Z,1.95
2017-04-19T08:48:06.035Z,2.33
2017-04-19T08:49:07.148Z,3.38
2017-04-19T08:50:08.326Z,2.83
2017-04-19T08:51:09.615Z,2.27
2017-04-19T08:52:10.560Z,3.35
2017-04-19T08:53:11.799Z,3.62
2017-04-19T08:54:12.921Z,2.60
2017-04-19T08:55:14.133Z,2.25
2017-04-19T08:56:15.279Z,2.68
2017-04-19T08:57:16.645Z,2.22
2017-04-19T08:58:17.898Z,3.65
2017-04-19T08:59:19.200Z,2.48
2017-04-19T09:00:20.371Z,3.28
2017-04-19T09:01:21.418Z,2.72
2017-04-19T09:02:22.380Z,4.73
2017-04-19T09:03:23.537Z,2.35
2017-04-19T09:04:24.549Z,2.00
2017-04-19T09:05:25.753Z,2.58
2017-04-19T09:06:26.924Z,2.72
2017-04-19T09:07:28.090Z,2.15
2017-04-19T09:08:29.371Z,2.20
2017-04-19T09:09:30.565Z,2.73
2017-04-19T09:10:31.779Z,2.90
2017-04-19T09:11:32.926Z,2.50
2017-04-19T09:12:35.256Z,2.42
2017-04-19T09:13:36.379Z,3.17
2017-04-19T09:14:37.507Z,2.28
2017-04-19T09:15:38.461Z,3.77
2017-04-19T09:16:39.795Z,5.08
2017-04-19T09:17:41.023Z,3.43
2017-04-19T09:18:42.296Z,2.72
2017-04-19T09:19:43.482Z,2.45
2017-04-19T09:20:44.454Z,4.13
2017-04-19T09:21:46.091Z,2.48
2017-04-19T09:22:47.395Z,4.13
2017-04-19T09:23:48.544Z,2.90
2017-04-19T09:24:49.692Z,2.32
2017-04-19T09:25:50.909Z,2.78
2017-04-19T09:26:51.842Z,2.45
2017-04-19T09:27:53.376Z,2.42
2017-04-19T09:28:54.619Z,2.55
2017-04-19T09:29:56.085Z,2.57
2017-04-19T09:30:57.136Z,2.78
2017-04-19T09:31:58.133Z,3.20
2017-04-19T09:32:59.643Z,3.05
2017-04-19T09:34:00.820Z,2.85
2017-04-19T09:35:02.100Z,3.75
2017-04-19T09:36:03.287Z,2.50
2017-04-19T09:37:04.607Z,3.85
2017-04-19T09:38:05.751Z,3.22
2017-04-19T09:39:07.054Z,4.02
2017-04-19T09:40:08.284Z,2.93
2017-04-19T09:41:09.539Z,3.23
2017-04-19T09:42:10.478Z,2.38
2017-04-19T09:43:12.343Z,2.40
2017-04-19T09:44:13.700Z,2.23
2017-04-19T09:45:14.921Z,2.80
2017-04-19T09:46:15.928Z,3.05
2017-04-19T09:47:17.511Z,2.57
2017-04-19T09:48:19.196Z,2.95
2017-04-19T09:49:20.530Z,2.67
2017-04-19T09:50:21.714Z,3.25
2017-04-19T09:51:23.020Z,4.62
2017-04-19T09:52:24.174Z,3.85
2017-04-19T09:53:25.279Z,2.67
2017-04-19T09:54:26.314Z,4.25
2017-04-19T09:55:27.371Z,1.97
2017-04-19T09:56:28.620Z,2.60
2017-04-19T09:57:29.815Z,2.45
2017-04-19T09:58:30.947Z,2.45
2017-04-19T09:59:32.220Z,2.33
2017-04-19T10:00:33.500Z,3.42
2017-04-19T10:01:34.440Z,2.22
2017-04-19T10:02:35.661Z,4.42
2017-04-19T10:03:36.823Z,5.48
2017-04-19T10:04:38.097Z,2.38
2017-04-19T10:05:39.816Z,2.45
2017-04-19T10:06:40.927Z,2.17
2017-04-19T10:07:41.887Z,3.23
2017-04-19T10:08:42.812Z,2.98
2017-04-19T10:09:43.998Z,2.82
2017-04-19T10:10:46.156Z,2.70
2017-04-19T10:11:47.319Z,2.67
2017-04-19T10:12:48.443Z,2.58
2017-04-19T10:13:49.394Z,2.87
2017-04-19T10:14:50.363Z,3.82
2017-04-19T10:15:51.584Z,2.95
2017-04-19T10:16:52.987Z,2.33
2017-04-19T10:17:54.344Z,4.20
2017-04-19T10:18:55.615Z,2.98
2017-04-19T10:19:57.014Z,3.07
2017-04-19T10:20:58.172Z,2.98
2017-04-19T10:21:59.744Z,3.12
2017-04-19T10:23:00.709Z,2.27
2017-04-19T10:24:01.854Z,2.60
2017-04-19T10:25:02.777Z,3.32
2017-04-19T10:26:04.006Z,3.13
2017-04-19T10:27:04.942Z,3.03
2017-04-19T10:28:06.070Z,2.87
2017-04-19T10:29:06.974Z,2.33
2017-04-19T10:30:08.743Z,2.57
2017-04-19T10:31:09.979Z,2.55
2017-04-19T10:32:11.104Z,2.15
2017-04-19T10:33:12.604Z,2.38
2017-04-19T10:34:14.211Z,3.20
2017-04-19T10:35:15.337Z,3.32
2017-04-19T10:36:16.519Z,4.75
2017-04-19T10:37:18.075Z,4.53
2017-04-19T10:38:19.339Z,3.95
2017-04-19T10:39:20.475Z,3.08
2017-04-19T10:40:21.747Z,2.67
2017-04-19T10:41:22.818Z,3.18
2017-04-19T10:42:24.302Z,2.93
2017-04-19T10:43:25.479Z,2.97
2017-04-19T10:44:26.656Z,4.17
2017-04-19T10:45:27.836Z,4.83
2017-04-19T10:46:29.238Z,2.42
2017-04-19T10:47:30.282Z,2.65
2017-04-19T10:48:31.180Z,2.03
2017-04-19T10:49:32.224Z,2.28
2017-04-19T10:50:33.346Z,2.05
2017-04-19T10:51:34.580Z,2.08
2017-04-19T10:52:35.894Z,1.88
2017-04-19T10:53:37.198Z,2.15
2017-04-19T10:54:38.383Z,2.18
2017-04-19T10:55:39.499Z,3.07
2017-04-19T10:56:40.731Z,1.95
2017-04-19T10:57:41.964Z,1.70
2017-04-19T10:58:43.178Z,2.30
2017-04-19T10:59:44.177Z,2.10
2017-04-19T11:00:45.527Z,1.92
2017-04-19T11:01:46.742Z,2.17
2017-04-19T11:02:48.043Z,4.07
2017-04-19T11:03:49.262Z,3.82
2017-04-19T11:04:50.544Z,2.27
2017-04-19T11:05:51.647Z,1.93
2017-04-19T11:06:52.948Z,2.17
2017-04-19T11:07:54.203Z,2.82
2017-04-19T11:08:55.596Z,2.33
2017-04-19T11:09:56.867Z,2.40
2017-04-19T11:10:58.065Z,3.00
2017-04-19T11:11:59.147Z,3.20
2017-04-19T11:13:00.333Z,2.27
2017-04-19T11:14:01.628Z,2.22
2017-04-19T11:15:02.894Z,2.55
2017-04-19T11:16:04.059Z,2.13
2017-04-19T11:17:05.284Z,2.40
2017-04-19T11:18:07.176Z,4.05
2017-04-19T11:19:08.216Z,2.30
2017-04-19T11:20:09.564Z,2.43
2017-04-19T11:21:10.724Z,3.08
2017-04-19T11:22:11.926Z,2.73
2017-04-19T11:23:13.060Z,3.35
2017-04-19T11:24:14.303Z,2.58
2017-04-19T11:25:15.487Z,2.95
2017-04-19T11:26:16.548Z,2.88
2017-04-19T11:27:17.702Z,2.92
2017-04-19T11:28:18.962Z,4.57
2017-04-19T11:29:20.039Z,2.82
2017-04-19T11:30:22.004Z,2.70
2017-04-19T11:31:23.304Z,4.07
2017-04-19T11:32:24.359Z,3.55
2017-04-19T11:33:25.516Z,3.03
2017-04-19T11:34:26.785Z,3.48
2017-04-19T11:35:27.879Z,2.65
2017-04-19T11:36:29.300Z,3.65
2017-04-19T11:37:30.666Z,5.58
2017-04-19T11:38:31.898Z,2.80
2017-04-19T11:39:33.028Z,2.53
2017-04-19T11:40:34.250Z,3.45
2017-04-19T11:41:35.456Z,5.20
2017-04-19T11:42:37.035Z,2.88
2017-04-19T11:43:38.223Z,2.12
2017-04-19T11:44:39.657Z,2.47
2017-04-19T11:45:40.875Z,4.88
2017-04-19T11:46:42.024Z,2.38
2017-04-19T11:47:43.291Z,2.77
2017-04-19T11:48:44.459Z,2.48
2017-04-19T11:49:45.798Z,4.12
2017-04-19T11:50:47.076Z,3.63
2017-04-19T11:51:48.418Z,2.63
2017-04-19T11:52:49.685Z,2.28
2017-04-19T11:53:50.878Z,3.02
2017-04-19T11:54:51.910Z,2.22
2017-04-19T11:55:53.275Z,2.82
2017-04-19T11:56:54.547Z,2.32
2017-04-19T11:57:55.623Z,3.93
2017-04-19T11:58:56.935Z,5.23
2017-04-19T11:59:58.026Z,5.75
2017-04-19T12:00:59.171Z,5.78
2017-04-19T12:02:00.254Z,5.50
2017-04-19T12:03:01.236Z,3.32
2017-04-19T12:04:03.195Z,2.73
2017-04-19T12:05:04.557Z,3.13
2017-04-19T12:06:05.659Z,2.25
2017-04-19T12:07:06.666Z,2.73
2017-04-19T12:08:07.799Z,2.30
2017-04-19T12:09:09.100Z,4.28
2017-04-19T12:10:10.531Z,3.33
2017-04-19T12:11:11.751Z,3.47
2017-04-19T12:12:12.905Z,3.70
2017-04-19T12:13:14.116Z,3.47
2017-04-19T12:14:15.299Z,2.85
2017-04-19T12:15:16.605Z,3.73
2017-04-19T12:16:17.827Z,2.63
2017-04-19T12:17:19.083Z,2.80
2017-04-19T12:18:20.505Z,2.53
2017-04-19T12:19:21.763Z,4.33
2017-04-19T12:20:23.107Z,2.67
2017-04-19T12:21:24.290Z,3.07
2017-04-19T12:22:25.424Z,5.87
2017-04-19T12:23:26.446Z,2.67
2017-04-19T12:24:27.439Z,3.02
2017-04-19T12:25:28.705Z,4.20
2017-04-19T12:26:29.787Z,2.37
2017-04-19T12:27:30.824Z,3.35
2017-04-19T12:28:32.335Z,4.58
2017-04-19T12:29:33.475Z,2.43
2017-04-19T12:30:34.552Z,2.72
2017-04-19T12:31:35.792Z,2.38
2017-04-19T12:32:36.973Z,2.18
2017-04-19T12:33:38.220Z,2.53
2017-04-19T12:34:39.438Z,2.20
2017-04-19T12:35:40.502Z,9.57
2017-04-19T12:36:41.616Z,2.55
2017-04-19T12:37:42.728Z,2.75
2017-04-19T12:38:43.871Z,2.80
2017-04-19T12:39:44.828Z,2.77
2017-04-19T12:40:45.905Z,3.90
2017-04-19T12:41:47.609Z,2.85
2017-04-19T12:42:48.875Z,3.23
2017-04-19T12:43:50.056Z,2.42
2017-04-19T12:44:51.431Z,2.42
2017-04-19T12:45:52.477Z,2.53
2017-04-19T12:46:53.539Z,2.42
2017-04-19T12:47:55.095Z,2.48
2017-04-19T12:48:56.230Z,2.78
2017-04-19T12:49:57.403Z,2.58
2017-04-19T12:50:58.600Z,2.78
2017-04-19T12:51:59.596Z,3.57
2017-04-19T12:53:00.642Z,2.93
2017-04-19T12:54:01.856Z,2.43
2017-04-19T12:55:02.887Z,2.37
2017-04-19T12:56:04.229Z,2.40
2017-04-19T12:57:05.260Z,6.15
2017-04-19T12:58:06.417Z,2.58
2017-04-19T12:59:07.367Z,3.77
2017-04-19T13:00:08.308Z,4.53
2017-04-19T13:01:09.362Z,2.77
2017-04-19T13:02:10.368Z,2.02
2017-04-19T13:03:11.914Z,2.25
2017-04-19T13:04:12.998Z,2.55
2017-04-19T13:05:14.278Z,2.55
2017-04-19T13:06:15.496Z,1.83
2017-04-19T13:07:16.803Z,2.12
2017-04-19T13:08:18.091Z,3.12
2017-04-19T13:09:19.177Z,2.98
2017-04-19T13:10:20.387Z,2.48
2017-04-19T13:11:21.820Z,2.57
2017-04-19T13:12:23.101Z,2.62
2017-04-19T13:13:25.006Z,2.78
2017-04-19T13:14:26.281Z,2.37
2017-04-19T13:15:27.231Z,1.92
2017-04-19T13:16:28.220Z,3.52
2017-04-19T13:17:29.384Z,2.78
2017-04-19T13:18:30.618Z,2.98
2017-04-19T13:19:31.580Z,3.30
2017-04-19T13:20:32.785Z,2.97
2017-04-19T13:21:34.151Z,2.73
2017-04-19T13:22:35.260Z,3.00
2017-04-19T13:23:36.259Z,2.67
2017-04-19T13:24:37.343Z,2.35
2017-04-19T13:25:38.559Z,4.88
2017-04-19T13:26:39.556Z,2.25
2017-04-19T13:27:40.724Z,2.90
2017-04-19T13:28:41.963Z,2.23
2017-04-19T13:29:43.153Z,3.10
2017-04-19T13:30:44.480Z,2.07
2017-04-19T13:31:45.479Z,2.47
2017-04-19T13:32:46.471Z,2.58
2017-04-19T13:33:47.635Z,2.95
2017-04-19T13:34:48.795Z,2.93
2017-04-19T13:35:50.169Z,2.62
2017-04-19T13:36:51.364Z,2.98
2017-04-19T13:37:52.523Z,3.65